Time;durP1;ratioP1;P1;durP2;ratioP2;P2;SDS_P1;SDS_P2;PMS_P1;PMS_P2;Temp;Humidity;BMP_temperature;BMP_pressure;BME280_temperature;BME280_humidity;BME280_pressure;Samples;Min_cycle;Max_cycle;Signal;HPM_P1;HPM_P2
2023/01/12 00:01:49;;;;;;;20.50;2.92;;;9.60;99.90;;;;;;4995395;28;20026;-64
2023/01/12 00:04:15;;;;;;;16.73;2.65;;;9.50;99.90;;;;;;4995306;28;20084;-64
2023/01/12 00:06:42;;;;;;;16.63;1.77;;;9.40;99.90;;;;;;4995121;28;20026;-64
2023/01/12 00:09:08;;;;;;;7.60;1.63;;;9.40;99.90;;;;;;4995241;28;20041;-64
2023/01/12 00:11:38;;;;;;;3.42;0.40;;;9.50;99.90;;;;;;4977740;28;20023;-64
2023/01/12 00:14:05;;;;;;;4.97;1.88;;;9.50;99.90;;;;;;4994766;28;20391;-64
2023/01/12 00:16:36;;;;;;;19.63;2.75;;;9.50;99.90;;;;;;4994728;28;20227;-64
2023/01/12 00:19:11;;;;;;;15.02;2.33;;;9.40;99.90;;;;;;4994864;28;20494;-64
2023/01/12 00:21:47;;;;;;;5.28;1.17;;;9.40;99.90;;;;;;4995113;28;20109;-64
2023/01/12 00:24:15;;;;;;;3.20;2.03;;;9.50;99.90;;;;;;4994949;28;20120;-64
2023/01/12 00:26:40;;;;;;;12.27;1.98;;;9.50;99.90;;;;;;4994881;28;20022;-65
2023/01/12 00:29:06;;;;;;;9.93;2.58;;;9.50;99.90;;;;;;4995162;28;20029;-68
2023/01/12 00:31:32;;;;;;;22.30;3.20;;;9.40;99.90;;;;;;4994693;28;20482;-64
2023/01/12 00:33:58;;;;;;;1.98;0.82;;;9.40;99.90;;;;;;4994753;28;20117;-64
2023/01/12 00:36:23;;;;;;;18.00;1.75;;;9.50;99.90;;;;;;4994521;28;20428;-67
2023/01/12 00:38:49;;;;;;;9.30;2.08;;;9.50;99.90;;;;;;4994290;28;20109;-64
2023/01/12 00:46:44;;;;;;;14.25;3.83;;;9.40;99.90;;;;;;4994544;28;20038;-65
2023/01/12 00:49:09;;;;;;;20.27;3.97;;;9.40;99.90;;;;;;4994581;28;20057;-64
2023/01/12 00:51:35;;;;;;;21.48;2.67;;;9.40;99.90;;;;;;4976889;28;20502;-68
2023/01/12 00:54:03;;;;;;;18.33;2.20;;;9.50;99.90;;;;;;5007811;23;20050;-64
2023/01/12 00:56:33;;;;;;;10.48;2.30;;;9.40;99.90;;;;;;4977049;28;20048;-64
2023/01/12 00:58:59;;;;;;;2.67;1.38;;;9.30;99.90;;;;;;4994412;28;20082;-64
2023/01/12 01:01:25;;;;;;;7.97;1.23;;;9.30;99.90;;;;;;4994195;28;20109;-71
2023/01/12 01:03:51;;;;;;;5.43;1.48;;;9.30;99.90;;;;;;4993933;28;20623;-65
2023/01/12 01:06:17;;;;;;;5.07;1.27;;;9.30;99.90;;;;;;4993653;28;20035;-65
2023/01/12 01:08:43;;;;;;;1.88;1.15;;;9.20;99.90;;;;;;4994230;28;20036;-66
2023/01/12 01:11:11;;;;;;;24.95;4.65;;;9.20;99.90;;;;;;4995049;28;20120;-65
2023/01/12 01:13:42;;;;;;;6.25;1.33;;;9.20;99.90;;;;;;4996040;28;20030;-65
2023/01/12 01:16:13;;;;;;;10.98;2.33;;;9.20;99.90;;;;;;4994821;28;20066;-65
2023/01/12 01:18:40;;;;;;;5.13;1.50;;;9.20;99.90;;;;;;4984795;28;20034;-65
2023/01/12 01:21:11;;;;;;;9.10;1.10;;;9.20;99.90;;;;;;4975152;28;20102;-65
2023/01/12 01:23:38;;;;;;;2.28;1.30;;;9.20;99.90;;;;;;4969885;28;20081;-65
2023/01/12 01:26:09;;;;;;;8.13;1.75;;;9.10;99.90;;;;;;4983447;28;20046;-65
2023/01/12 01:28:38;;;;;;;16.42;3.30;;;9.10;99.90;;;;;;4979932;28;20476;-66
2023/01/12 01:31:06;;;;;;;21.27;3.58;;;9.10;99.90;;;;;;4964737;28;20428;-66
2023/01/12 01:33:32;;;;;;;14.98;2.60;;;9.10;99.90;;;;;;4978090;28;20030;-66
2023/01/12 01:35:58;;;;;;;26.13;3.35;;;9.10;99.90;;;;;;4975756;28;20031;-65
2023/01/12 01:38:25;;;;;;;25.95;4.50;;;9.10;99.90;;;;;;4980720;28;21298;-66
2023/01/12 01:40:51;;;;;;;10.65;1.75;;;9.20;99.90;;;;;;4969641;28;20042;-66
2023/01/12 01:43:20;;;;;;;21.02;3.22;;;9.20;99.90;;;;;;4973089;28;20019;-66
2023/01/12 01:45:58;;;;;;;6.13;1.50;;;9.20;99.90;;;;;;4974938;28;20031;-64
2023/01/12 01:48:26;;;;;;;5.20;2.22;;;9.20;99.90;;;;;;4975086;28;20422;-65
2023/01/12 01:51:00;;;;;;;4.47;1.48;;;9.30;99.90;;;;;;4958132;28;20031;-71
2023/01/12 01:53:27;;;;;;;16.10;2.08;;;9.30;99.90;;;;;;4973612;28;20046;-65
2023/01/12 01:56:03;;;;;;;10.82;2.75;;;9.30;99.90;;;;;;4974428;28;20027;-64
2023/01/12 01:59:28;;;;;;;9.45;1.13;;;9.40;99.90;;;;;;4972997;28;20093;-64
2023/01/12 02:01:54;;;;;;;23.15;3.42;;;9.40;99.90;;;;;;4923584;28;20050;-64
2023/01/12 02:04:20;;;;;;;5.75;1.48;;;9.30;99.90;;;;;;4976210;28;20114;-64
2023/01/12 02:06:47;;;;;;;7.93;1.88;;;9.30;99.90;;;;;;4971069;28;20026;-64
2023/01/12 02:09:20;;;;;;;1.15;1.15;;;9.30;99.90;;;;;;4987238;28;20034;-65
2023/01/12 02:18:09;;;;;;;9.32;1.75;;;9.30;99.90;;;;;;4977856;28;20475;-64
2023/01/12 02:20:55;;;;;;;6.80;1.25;;;9.30;99.90;;;;;;4961625;28;20038;-71
2023/01/12 02:23:21;;;;;;;1.63;0.80;;;9.30;99.90;;;;;;4986400;28;20031;-69
2023/01/12 02:26:20;;;;;;;17.42;2.75;;;9.30;99.90;;;;;;4992721;28;20388;-64
2023/01/12 02:29:17;;;;;;;41.55;4.70;;;9.20;99.90;;;;;;4992314;28;20446;-64
2023/01/12 02:31:55;;;;;;;25.92;2.33;;;9.20;99.90;;;;;;4992880;28;20038;-64
2023/01/12 02:34:48;;;;;;;8.35;0.43;;;9.20;99.90;;;;;;4993199;28;20108;-64
2023/01/12 02:37:43;;;;;;;12.10;3.72;;;9.30;99.90;;;;;;4992833;28;20376;-66
2023/01/12 02:40:25;;;;;;;12.55;2.58;;;9.20;99.90;;;;;;4956197;28;20070;-70
2023/01/12 02:43:11;;;;;;;9.07;3.42;;;9.20;99.90;;;;;;4992824;28;20030;-66
2023/01/12 02:45:44;;;;;;;8.32;1.90;;;9.30;99.90;;;;;;4992528;28;20490;-73
2023/01/12 02:48:35;;;;;;;10.73;2.53;;;9.20;99.90;;;;;;4993071;28;20615;-65
2023/01/12 02:51:36;;;;;;;9.48;2.75;;;9.20;99.90;;;;;;4975251;28;20030;-65
2023/01/12 02:54:05;;;;;;;16.20;2.53;;;9.20;99.90;;;;;;4992535;28;20050;-65
2023/01/12 02:56:44;;;;;;;14.65;3.13;;;9.30;99.90;;;;;;4992573;28;20026;-66
2023/01/12 02:59:24;;;;;;;11.15;2.00;;;9.20;99.90;;;;;;4992677;28;20026;-72
2023/01/12 03:01:53;;;;;;;16.38;2.28;;;9.30;99.90;;;;;;4993827;28;20040;-65
2023/01/12 03:04:21;;;;;;;11.25;2.40;;;9.30;99.90;;;;;;4978796;28;20394;-66
2023/01/12 03:07:12;;;;;;;10.07;3.17;;;9.30;99.90;;;;;;4995983;28;20561;-66
2023/01/12 03:09:48;;;;;;;6.83;1.70;;;9.20;99.90;;;;;;4996127;28;20049;-65
2023/01/12 03:12:25;;;;;;;9.63;1.35;;;9.30;99.90;;;;;;4996177;28;20417;-65
2023/01/12 03:14:54;;;;;;;7.70;1.23;;;9.20;99.90;;;;;;4978588;28;20124;-65
2023/01/12 03:17:25;;;;;;;1.15;0.65;;;9.20;99.90;;;;;;4996385;28;20029;-65
2023/01/12 03:19:55;;;;;;;4.22;1.27;;;9.30;99.90;;;;;;4996192;28;20022;-65
2023/01/12 03:22:21;;;;;;;12.70;1.95;;;9.30;99.90;;;;;;4996175;28;20030;-65
2023/01/12 03:24:55;;;;;;;11.65;2.03;;;9.30;99.90;;;;;;4977626;28;20038;-74
2023/01/12 03:27:39;;;;;;;22.13;3.60;;;9.30;99.90;;;;;;4995313;28;20105;-66
2023/01/12 03:30:13;;;;;;;19.58;2.13;;;9.30;99.90;;;;;;4978637;28;21211;-73
2023/01/12 03:32:39;;;;;;;12.35;2.78;;;9.30;99.90;;;;;;4996040;28;20038;-67
2023/01/12 03:35:07;;;;;;;3.05;1.00;;;9.30;99.90;;;;;;4995634;28;20033;-65
2023/01/12 03:37:38;;;;;;;9.43;0.80;;;9.30;99.90;;;;;;4996047;28;20033;-66
2023/01/12 03:40:27;;;;;;;8.52;2.30;;;9.40;99.90;;;;;;4994963;28;20038;-66
2023/01/12 03:43:12;;;;;;;13.80;2.42;;;9.30;99.90;;;;;;4995685;28;20037;-65
2023/01/12 03:45:44;;;;;;;15.18;2.58;;;9.30;99.90;;;;;;4977263;28;20046;-66
2023/01/12 03:48:28;;;;;;;3.83;1.77;;;9.40;99.90;;;;;;4995715;28;20045;-73
2023/01/12 03:51:29;;;;;;;11.00;2.92;;;9.40;99.90;;;;;;4995712;28;20027;-66
2023/01/12 03:53:57;;;;;;;14.07;2.75;;;9.40;99.90;;;;;;4994983;28;20514;-73
2023/01/12 03:56:27;;;;;;;24.15;2.65;;;9.50;99.90;;;;;;4995495;28;20026;-74
2023/01/12 03:58:53;;;;;;;18.67;1.77;;;9.40;99.90;;;;;;4995114;28;20022;-66
2023/01/12 04:01:19;;;;;;;10.02;1.80;;;9.40;99.90;;;;;;4995471;28;20033;-74
2023/01/12 04:03:45;;;;;;;5.72;0.95;;;9.40;99.90;;;;;;4995440;28;20022;-73
2023/01/12 04:06:11;;;;;;;15.15;2.67;;;9.50;99.90;;;;;;4978165;28;20031;-74
2023/01/12 04:08:37;;;;;;;24.80;3.15;;;9.50;99.90;;;;;;5004000;28;20033;-65
2023/01/12 04:12:09;;;;;;;12.40;2.50;;;9.40;99.90;;;;;;4997044;28;20026;-66
2023/01/12 04:13:52;;;;;;;12.32;2.22;;;9.40;99.90;;;;;;4993680;28;20038;-66
2023/01/12 04:16:18;;;;;;;12.07;1.67;;;9.40;99.90;;;;;;4995211;28;20459;-73
2023/01/12 04:18:44;;;;;;;11.85;2.17;;;9.40;99.90;;;;;;4995004;28;20119;-66
2023/01/12 04:22:41;;;;;;;8.10;2.35;;;9.40;99.90;;;;;;4995152;28;20117;-66
2023/01/12 04:23:56;;;;;;;11.43;2.30;;;9.40;99.90;;;;;;4994496;28;20526;-66
2023/01/12 04:26:22;;;;;;;17.30;3.28;;;9.40;99.90;;;;;;4994782;28;20042;-65
2023/01/12 04:28:48;;;;;;;7.57;1.17;;;9.40;99.90;;;;;;4994831;28;20053;-66
2023/01/12 04:31:14;;;;;;;13.93;3.50;;;9.40;99.90;;;;;;4977359;28;20062;-66
2023/01/12 04:33:41;;;;;;;28.08;2.55;;;9.40;99.90;;;;;;4977439;28;20117;-66
2023/01/12 04:36:10;;;;;;;8.40;1.52;;;9.40;99.90;;;;;;4981888;28;20495;-73
2023/01/12 04:38:37;;;;;;;13.93;3.45;;;9.40;99.90;;;;;;4976656;28;20049;-66
2023/01/12 04:41:04;;;;;;;10.05;1.90;;;9.40;99.90;;;;;;4957627;28;20033;-66
2023/01/12 04:43:30;;;;;;;12.80;1.92;;;9.40;99.90;;;;;;4989046;28;20529;-66
2023/01/12 04:45:55;;;;;;;11.07;2.45;;;9.40;99.90;;;;;;4994224;28;20034;-74
2023/01/12 04:48:21;;;;;;;4.45;0.85;;;9.40;99.90;;;;;;4986137;28;20065;-66
2023/01/12 04:50:49;;;;;;;6.90;1.35;;;9.40;99.90;;;;;;4993697;28;20034;-65
2023/01/12 04:53:15;;;;;;;13.30;2.25;;;9.40;99.90;;;;;;4993863;28;20407;-71
2023/01/12 04:55:42;;;;;;;9.25;2.40;;;9.40;99.90;;;;;;4994092;28;20034;-73
2023/01/12 04:58:08;;;;;;;9.32;2.13;;;9.40;99.90;;;;;;4994308;28;20015;-66
2023/01/12 05:00:34;;;;;;;2.42;1.10;;;9.40;99.90;;;;;;4994252;28;20386;-65
2023/01/12 05:03:01;;;;;;;8.25;1.67;;;9.40;99.90;;;;;;4992718;28;20030;-66
2023/01/12 05:05:28;;;;;;;10.82;2.33;;;9.40;99.90;;;;;;4984108;28;20026;-66
2023/01/12 05:10:41;;;;;;;10.43;1.08;;;9.40;99.90;;;;;;4994041;28;20387;-66
2023/01/12 05:13:07;;;;;;;9.38;1.45;;;9.50;99.90;;;;;;4993903;28;20023;-66
2023/01/12 05:15:33;;;;;;;8.23;0.98;;;9.50;99.90;;;;;;4993877;28;20093;-66
2023/01/12 05:17:58;;;;;;;7.97;1.70;;;9.50;99.90;;;;;;4976302;28;20093;-74
2023/01/12 05:20:24;;;;;;;1.65;0.68;;;9.50;99.90;;;;;;4976365;28;20029;-65
2023/01/12 05:22:51;;;;;;;9.52;0.80;;;9.50;99.90;;;;;;4993547;28;20033;-71
2023/01/12 05:25:17;;;;;;;2.92;1.13;;;9.60;99.90;;;;;;4993631;28;20014;-70
2023/01/12 05:27:43;;;;;;;7.40;2.00;;;9.60;99.90;;;;;;4993734;28;20026;-65
2023/01/12 05:30:10;;;;;;;23.52;2.92;;;9.60;99.90;;;;;;4993664;28;20081;-66
2023/01/12 05:32:40;;;;;;;13.45;1.20;;;9.60;99.90;;;;;;4993753;28;20026;-66
2023/01/12 05:35:07;;;;;;;10.65;2.75;;;9.70;99.90;;;;;;4993620;28;20035;-68
2023/01/12 05:37:33;;;;;;;14.85;1.20;;;9.70;99.90;;;;;;4959883;28;20026;-65
2023/01/12 05:39:59;;;;;;;13.10;1.75;;;9.70;99.90;;;;;;4993366;28;20038;-66
2023/01/12 05:45:10;;;;;;;4.00;1.27;;;9.60;99.90;;;;;;4993393;28;20034;-66
2023/01/12 05:47:36;;;;;;;6.03;0.95;;;9.70;99.90;;;;;;4993376;28;20361;-74
2023/01/12 05:50:03;;;;;;;3.53;1.80;;;9.70;99.90;;;;;;4975762;28;20479;-66
2023/01/12 05:52:29;;;;;;;9.25;1.92;;;9.70;99.90;;;;;;4975883;28;20018;-65
2023/01/12 05:54:54;;;;;;;3.90;1.25;;;9.70;99.90;;;;;;4991933;28;20561;-74
2023/01/12 05:57:20;;;;;;;7.72;1.70;;;9.70;99.90;;;;;;4993169;28;20081;-66
2023/01/12 05:59:46;;;;;;;7.60;2.50;;;9.70;99.90;;;;;;4993050;28;20333;-65
2023/01/12 06:02:16;;;;;;;8.50;1.95;;;9.70;99.90;;;;;;4992890;28;20057;-69
2023/01/12 06:04:42;;;;;;;7.78;0.98;;;9.70;99.90;;;;;;4993144;28;20031;-66
2023/01/12 06:07:14;;;;;;;2.67;1.25;;;9.80;99.90;;;;;;4992885;28;20034;-66
2023/01/12 06:09:40;;;;;;;;;;;9.80;99.90;;;;;;4976403;28;20117;-66
2023/01/12 06:14:52;;;;;;;11.20;2.08;;;9.80;99.90;;;;;;4993144;28;20417;-72
2023/01/12 06:17:18;;;;;;;7.32;1.38;;;9.80;99.90;;;;;;4993055;28;20042;-70
2023/01/12 06:19:44;;;;;;;6.65;1.77;;;9.80;99.90;;;;;;4975774;28;20042;-65
2023/01/12 06:22:10;;;;;;;3.20;1.05;;;9.90;99.90;;;;;;4993132;28;20063;-69
2023/01/12 06:24:36;;;;;;;6.25;1.50;;;9.90;99.90;;;;;;4991303;28;20045;-70
2023/01/12 06:27:02;;;;;;;2.83;0.85;;;9.80;99.90;;;;;;4973808;28;20030;-67
2023/01/12 06:29:27;;;;;;;5.25;0.98;;;9.80;99.90;;;;;;4976920;28;20426;-71
2023/01/12 06:31:53;;;;;;;7.15;1.00;;;9.80;99.90;;;;;;4975431;28;20498;-65
2023/01/12 06:34:19;;;;;;;6.65;0.65;;;9.80;99.90;;;;;;4974629;28;20055;-65
2023/01/12 06:36:45;;;;;;;7.88;0.90;;;9.80;99.90;;;;;;4976897;28;20089;-70
2023/01/12 06:39:11;;;;;;;28.75;3.50;;;9.80;99.90;;;;;;4977403;28;20029;-72
2023/01/12 06:44:22;;;;;;;1.15;0.68;;;9.80;99.90;;;;;;4976697;28;20486;-65
2023/01/12 06:46:48;;;;;;;8.38;2.13;;;9.80;99.90;;;;;;4976060;28;20110;-65
2023/01/12 06:49:17;;;;;;;1.55;1.00;;;9.80;99.90;;;;;;4978156;28;20114;-66
2023/01/12 06:51:43;;;;;;;7.03;1.13;;;9.80;99.90;;;;;;4978102;28;20023;-69
2023/01/12 06:54:09;;;;;;;6.05;0.80;;;9.80;99.90;;;;;;4978828;28;20050;-66
2023/01/12 06:56:34;;;;;;;0.50;0.45;;;9.80;99.90;;;;;;4977042;28;20026;-72
2023/01/12 06:59:00;;;;;;;7.70;1.80;;;9.90;99.90;;;;;;4977692;28;20454;-72
2023/01/12 07:01:26;;;;;;;3.30;1.20;;;9.90;99.90;;;;;;4976223;28;20114;-64
2023/01/12 07:03:52;;;;;;;5.82;1.70;;;9.90;99.90;;;;;;4975694;28;20019;-66
2023/01/12 07:06:18;;;;;;;8.52;1.20;;;9.90;99.90;;;;;;4965905;28;20041;-71
2023/01/12 07:08:44;;;;;;;1.63;1.40;;;9.90;99.90;;;;;;4989002;28;20018;-69
2023/01/12 07:11:14;;;;;;;9.77;1.50;;;9.90;99.90;;;;;;4996197;28;20038;-70
2023/01/12 07:13:39;;;;;;;6.47;1.50;;;10.00;99.90;;;;;;4988679;28;20035;-69
2023/01/12 07:16:06;;;;;;;8.98;1.17;;;10.00;99.90;;;;;;4981002;28;20471;-65
2023/01/12 07:18:32;;;;;;;25.75;2.50;;;10.00;99.90;;;;;;4995235;28;20019;-66
2023/01/12 07:20:58;;;;;;;8.75;1.52;;;10.00;99.90;;;;;;4988937;28;20069;-67
2023/01/12 07:23:23;;;;;;;5.38;3.03;;;10.00;99.90;;;;;;4983878;28;20493;-70
2023/01/12 07:25:49;;;;;;;10.68;1.67;;;10.10;99.90;;;;;;4996012;28;20527;-67
2023/01/12 07:28:15;;;;;;;4.68;1.85;;;10.10;99.90;;;;;;4995796;28;20145;-67
2023/01/12 07:30:41;;;;;;;9.15;1.90;;;10.10;99.90;;;;;;4999389;28;20045;-70
2023/01/12 07:33:12;;;;;;;6.22;1.55;;;10.10;99.90;;;;;;4995198;28;20027;-70
2023/01/12 07:35:39;;;;;;;1.10;0.27;;;10.20;99.90;;;;;;4996017;28;20034;-70
2023/01/12 07:38:05;;;;;;;1.83;1.45;;;10.20;99.90;;;;;;4987823;28;20014;-68
2023/01/12 07:40:31;;;;;;;7.13;1.65;;;10.20;99.90;;;;;;4976450;28;20027;-72
2023/01/12 07:43:02;;;;;;;0.88;0.82;;;10.20;99.90;;;;;;4975324;28;20113;-69
2023/01/12 07:45:29;;;;;;;5.80;1.30;;;10.30;99.90;;;;;;4959864;28;20134;-66
2023/01/12 07:47:55;;;;;;;8.52;1.33;;;10.30;99.90;;;;;;4958887;28;20687;-70
2023/01/12 07:50:23;;;;;;;2.92;0.30;;;10.30;99.90;;;;;;4977886;28;20019;-65
2023/01/12 07:52:49;;;;;;;2.40;1.17;;;10.30;99.90;;;;;;4978786;28;20038;-68
2023/01/12 07:55:17;;;;;;;2.08;0.40;;;10.20;99.90;;;;;;4983695;28;20522;-69
2023/01/12 07:57:52;;;;;;;2.33;0.80;;;10.30;99.90;;;;;;4989156;28;20022;-65
2023/01/12 08:00:22;;;;;;;9.43;1.00;;;10.30;99.90;;;;;;4986594;28;20026;-65
2023/01/12 08:02:52;;;;;;;0.93;0.52;;;10.20;99.90;;;;;;4989201;28;20031;-70
2023/01/12 08:05:18;;;;;;;2.38;0.98;;;10.30;99.90;;;;;;4976696;28;20027;-67
2023/01/12 08:07:44;;;;;;;1.77;1.17;;;10.30;99.90;;;;;;4993824;28;20027;-65
2023/01/12 08:10:12;;;;;;;1.13;0.35;;;10.30;99.90;;;;;;4995457;28;20041;-65
2023/01/12 08:12:38;;;;;;;8.18;2.08;;;10.30;99.90;;;;;;4995138;28;20026;-68
2023/01/12 08:15:04;;;;;;;4.40;0.47;;;10.30;99.90;;;;;;4994706;28;20123;-65
2023/01/12 08:17:38;;;;;;;14.15;1.38;;;10.30;99.90;;;;;;4994823;28;20026;-70
2023/01/12 08:20:15;;;;;;;6.78;0.88;;;10.30;99.90;;;;;;4976797;28;20486;-67
2023/01/12 08:22:45;;;;;;;8.10;2.13;;;10.30;99.90;;;;;;4993925;28;20161;-67
2023/01/12 08:25:29;;;;;;;6.80;2.25;;;10.30;99.90;;;;;;4994397;28;20066;-65
2023/01/12 08:27:59;;;;;;;2.20;0.75;;;10.30;99.90;;;;;;4994283;28;20057;-65
2023/01/12 08:30:26;;;;;;;0.52;0.43;;;10.30;99.90;;;;;;4994269;28;20023;-70
2023/01/12 08:32:55;;;;;;;6.10;1.38;;;10.40;99.90;;;;;;4993338;28;20018;-66
2023/01/12 08:35:22;;;;;;;2.85;0.85;;;10.30;99.90;;;;;;4994782;28;20043;-65
2023/01/12 08:37:48;;;;;;;1.33;0.80;;;10.40;99.90;;;;;;4994903;28;20037;-66
2023/01/12 08:40:14;;;;;;;11.23;1.80;;;10.40;99.90;;;;;;4995006;28;20034;-65
2023/01/12 08:42:40;;;;;;;5.93;1.27;;;10.40;99.90;;;;;;4995137;28;20041;-69
2023/01/12 08:45:07;;;;;;;6.97;1.88;;;10.40;99.90;;;;;;4995124;28;20035;-66
2023/01/12 08:47:33;;;;;;;5.05;1.77;;;10.40;99.90;;;;;;4996121;28;20022;-67
2023/01/12 08:49:59;;;;;;;5.10;2.08;;;10.40;99.90;;;;;;4996620;28;20513;-68
2023/01/12 08:52:30;;;;;;;7.20;1.10;;;10.40;99.90;;;;;;4978997;28;20022;-64
2023/01/12 08:54:56;;;;;;;1.45;0.60;;;10.50;99.90;;;;;;4995778;28;20403;-65
2023/01/12 08:57:22;;;;;;;2.28;1.17;;;10.50;99.90;;;;;;4996254;28;20018;-65
2023/01/12 08:59:47;;;;;;;2.53;0.85;;;10.50;99.90;;;;;;4976209;28;20034;-67
2023/01/12 09:02:14;;;;;;;2.00;0.93;;;10.50;99.90;;;;;;4994414;28;20038;-68
2023/01/12 09:04:40;;;;;;;4.70;0.85;;;10.50;99.90;;;;;;4994470;28;20489;-66
2023/01/12 09:07:07;;;;;;;0.70;0.55;;;10.60;99.90;;;;;;4994410;28;20088;-65
2023/01/12 09:09:33;;;;;;;1.05;0.95;;;10.60;99.90;;;;;;4994088;28;20026;-65
2023/01/12 09:11:59;;;;;;;1.48;1.38;;;10.60;99.90;;;;;;4994238;28;20528;-67
2023/01/12 09:14:25;;;;;;;3.10;0.95;;;10.60;99.90;;;;;;4993730;28;20577;-66
2023/01/12 09:16:51;;;;;;;2.67;1.35;;;10.70;99.90;;;;;;4993941;28;20487;-65
2023/01/12 09:19:17;;;;;;;2.35;1.27;;;10.60;99.90;;;;;;4994373;28;20041;-69
2023/01/12 09:21:43;;;;;;;1.65;1.08;;;10.60;99.90;;;;;;4994123;28;20027;-66
2023/01/12 09:24:10;;;;;;;3.10;1.30;;;10.60;99.90;;;;;;4994411;28;20117;-65
2023/01/12 09:26:39;;;;;;;1.58;1.23;;;10.60;99.90;;;;;;4980338;28;20089;-67
2023/01/12 09:29:06;;;;;;;3.33;1.33;;;10.60;99.90;;;;;;4993688;28;20035;-67
2023/01/12 09:31:34;;;;;;;3.00;0.85;;;10.60;99.90;;;;;;4994028;28;20033;-66
2023/01/12 09:34:00;;;;;;;2.13;1.00;;;10.60;99.90;;;;;;4993885;28;20081;-66
2023/01/12 09:36:28;;;;;;;0.88;0.85;;;10.60;99.90;;;;;;4993861;28;20092;-65
2023/01/12 09:38:53;;;;;;;2.33;1.58;;;10.70;99.90;;;;;;4976339;28;20471;-65
2023/01/12 09:47:23;;;;;;;0.30;0.30;;;10.70;99.90;;;;;;4993873;28;20026;-65
2023/01/12 09:50:02;;;;;;;0.70;0.70;;;10.70;99.90;;;;;;4994122;28;20527;-64
2023/01/12 09:52:36;;;;;;;9.57;1.52;;;10.70;99.90;;;;;;4993607;28;20217;-70
2023/01/12 09:55:03;;;;;;;1.60;0.98;;;10.70;99.90;;;;;;4993538;28;20117;-67
2023/01/12 09:57:37;;;;;;;1.08;0.73;;;10.70;99.90;;;;;;4993016;28;20088;-65
2023/01/12 10:00:15;;;;;;;10.85;0.75;;;10.70;99.90;;;;;;4993329;28;20081;-64
2023/01/12 10:02:46;;;;;;;1.00;0.90;;;10.80;99.90;;;;;;4993385;28;20030;-65
2023/01/12 10:05:33;;;;;;;2.15;0.88;;;10.70;99.90;;;;;;4993420;28;20037;-67
2023/01/12 10:07:59;;;;;;;1.02;0.65;;;10.70;99.90;;;;;;4993353;28;20418;-65
2023/01/12 10:10:24;;;;;;;1.52;0.73;;;10.70;99.90;;;;;;4993320;28;20076;-65
2023/01/12 10:13:03;;;;;;;0.47;0.47;;;10.70;99.90;;;;;;4992213;28;20102;-65
2023/01/12 10:15:48;;;;;;;1.20;0.70;;;10.80;99.90;;;;;;4975954;28;20046;-65
2023/01/12 10:18:51;;;;;;;0.40;0.40;;;10.80;99.90;;;;;;4993104;28;20023;-65
2023/01/12 10:21:17;;;;;;;2.50;0.57;;;10.80;99.90;;;;;;4976391;28;20046;-66
2023/01/12 10:23:43;;;;;;;1.58;0.73;;;10.80;99.90;;;;;;4992945;28;20041;-65
2023/01/12 10:26:30;;;;;;;2.65;1.25;;;10.80;99.90;;;;;;4975559;28;20023;-65
2023/01/12 10:28:57;;;;;;;2.38;1.10;;;10.80;99.90;;;;;;4993638;28;20121;-65
2023/01/12 10:31:24;;;;;;;0.47;0.30;;;10.80;99.90;;;;;;4975550;28;20037;-65
2023/01/12 10:34:08;;;;;;;3.42;1.55;;;10.80;99.90;;;;;;4992920;28;20500;-64
2023/01/12 10:36:36;;;;;;;0.93;0.50;;;10.90;99.90;;;;;;4993141;28;20108;-66
2023/01/12 10:39:04;;;;;;;1.63;0.75;;;10.90;99.90;;;;;;4992857;28;20479;-66
2023/01/12 10:41:36;;;;;;;1.77;0.95;;;10.90;99.90;;;;;;4992989;28;20034;-64
2023/01/12 10:44:02;;;;;;;;;;;10.90;99.90;;;;;;4993235;28;20033;-66
2023/01/12 10:46:32;;;;;;;2.95;0.65;;;10.90;99.90;;;;;;4993216;28;20001;-65
2023/01/12 10:49:22;;;;;;;2.08;1.58;;;10.90;99.90;;;;;;4992823;28;20037;-66
2023/01/12 10:51:51;;;;;;;1.15;0.90;;;10.90;99.90;;;;;;4981796;28;20129;-65
2023/01/12 10:54:19;;;;;;;4.22;1.10;;;10.90;99.90;;;;;;4992268;28;20085;-65
2023/01/12 10:57:11;;;;;;;3.40;0.70;;;10.90;99.90;;;;;;4993085;28;20038;-67
2023/01/12 10:59:39;;;;;;;0.50;0.30;;;10.90;99.90;;;;;;4984178;28;20085;-65
2023/01/12 11:02:07;;;;;;;0.32;0.30;;;10.90;99.90;;;;;;4992838;28;20022;-64
2023/01/12 11:04:52;;;;;;;2.40;1.00;;;10.90;99.90;;;;;;4992860;28;20034;-64
2023/01/12 11:07:30;;;;;;;1.60;0.38;;;10.90;99.90;;;;;;4975530;28;20553;-65
2023/01/12 11:10:24;;;;;;;1.52;0.88;;;11.00;99.90;;;;;;4992805;28;20061;-70
2023/01/12 11:13:02;;;;;;;5.57;0.73;;;11.00;99.90;;;;;;4992608;28;20031;-65
2023/01/12 11:15:29;;;;;;;0.98;0.30;;;11.00;99.90;;;;;;4993031;28;20125;-66
2023/01/12 11:18:16;;;;;;;0.68;0.40;;;11.00;99.90;;;;;;4992814;28;20026;-66
2023/01/12 11:20:50;;;;;;;1.27;0.90;;;11.00;99.90;;;;;;4992601;28;20027;-68
2023/01/12 11:23:22;;;;;;;0.10;0.10;;;11.00;99.90;;;;;;4976537;28;20387;-65
2023/01/12 11:25:51;;;;;;;0.85;0.77;;;11.00;99.90;;;;;;4996342;28;20046;-68
2023/01/12 11:28:22;;;;;;;0.95;0.30;;;11.00;99.90;;;;;;4996049;28;20029;-66
2023/01/12 11:30:54;;;;;;;0.40;0.40;;;11.00;99.90;;;;;;4996244;28;20431;-65
2023/01/12 11:33:33;;;;;;;0.77;0.75;;;10.90;99.90;;;;;;4995678;28;20049;-65
2023/01/12 11:36:04;;;;;;;1.35;0.40;;;11.00;99.90;;;;;;4995778;28;20484;-67
2023/01/12 11:38:34;;;;;;;1.38;0.40;;;11.00;99.90;;;;;;4995737;28;20399;-65
2023/01/12 11:41:02;;;;;;;0.55;0.30;;;10.90;99.90;;;;;;4978623;28;20037;-65
2023/01/12 11:43:57;;;;;;;1.42;1.10;;;11.00;99.90;;;;;;4978295;28;20031;-66
2023/01/12 11:46:42;;;;;;;3.85;1.08;;;11.00;99.90;;;;;;4996035;28;20067;-66
2023/01/12 11:49:38;;;;;;;0.82;0.57;;;10.90;99.90;;;;;;4978264;28;20035;-72
2023/01/12 11:52:09;;;;;;;7.40;1.08;;;10.90;99.90;;;;;;4977982;28;20039;-67
2023/01/12 11:54:37;;;;;;;0.60;0.60;;;10.90;99.90;;;;;;4995393;28;20054;-69
2023/01/12 11:57:30;;;;;;;0.10;0.10;;;10.90;99.90;;;;;;4978058;28;20027;-68
2023/01/12 12:00:21;;;;;;;3.38;1.10;;;10.90;99.90;;;;;;4994847;28;20093;-67
2023/01/12 12:03:28;;;;;;;0.40;0.40;;;10.80;99.90;;;;;;4995491;28;20045;-67
2023/01/12 12:06:26;;;;;;;4.47;1.13;;;10.80;99.90;;;;;;4977780;28;20025;-66
2023/01/12 12:09:12;;;;;;;2.15;1.00;;;10.90;99.90;;;;;;4995003;28;20034;-66
2023/01/12 12:11:56;;;;;;;0.93;0.93;;;10.80;99.90;;;;;;4995483;28;20045;-68
2023/01/12 12:15:06;;;;;;;0.30;0.30;;;10.80;99.90;;;;;;4994893;28;20121;-64
2023/01/12 12:17:59;;;;;;;0.20;0.20;;;10.80;99.90;;;;;;4995155;28;20030;-69
2023/01/12 12:20:31;;;;;;;1.05;0.70;;;10.80;99.90;;;;;;4995235;28;20034;-66
2023/01/12 12:23:06;;;;;;;1.38;0.68;;;10.80;99.90;;;;;;4994783;28;20032;-66
2023/01/12 12:25:43;;;;;;;0.30;0.30;;;10.80;99.90;;;;;;4994914;28;20022;-67
2023/01/12 12:28:30;;;;;;;0.68;0.43;;;10.80;99.90;;;;;;4995093;28;20499;-67
2023/01/12 12:31:29;;;;;;;0.20;0.20;;;10.80;99.90;;;;;;4994777;28;20041;-65
2023/01/12 12:34:00;;;;;;;0.15;0.15;;;10.80;99.90;;;;;;4954698;28;20046;-67
2023/01/12 12:36:32;;;;;;;0.28;0.28;;;10.80;99.90;;;;;;4976755;28;20042;-63
2023/01/12 12:39:28;;;;;;;0.73;0.60;;;10.80;99.90;;;;;;4994905;28;20093;-64
2023/01/12 12:45:32;;;;;;;0.15;0.15;;;10.80;99.90;;;;;;4994627;28;20037;-64
2023/01/12 12:48:01;;;;;;;2.05;0.60;;;10.80;99.90;;;;;;4994778;28;20156;-64
2023/01/12 12:51:18;;;;;;;1.38;0.70;;;10.80;99.90;;;;;;4994028;28;20785;-66
2023/01/12 12:53:51;;;;;;;0.30;0.30;;;10.80;99.90;;;;;;4977546;28;20112;-65
2023/01/12 12:56:19;;;;;;;0.40;0.40;;;10.70;99.90;;;;;;4994528;28;20387;-64
2023/01/12 12:58:50;;;;;;;0.75;0.75;;;10.80;99.90;;;;;;4994351;28;20034;-66
2023/01/12 13:01:22;;;;;;;0.30;0.30;;;10.80;99.90;;;;;;4994532;28;20057;-71
2023/01/12 13:03:57;;;;;;;0.88;0.77;;;10.80;99.90;;;;;;4994413;28;20034;-66
2023/01/12 13:06:33;;;;;;;1.13;0.52;;;10.80;99.90;;;;;;4994074;28;20077;-66
2023/01/12 13:09:10;;;;;;;0.95;0.52;;;10.70;99.90;;;;;;4976670;28;20037;-70
2023/01/12 13:11:59;;;;;;;0.20;0.20;;;10.80;99.90;;;;;;4994169;28;20019;-70
2023/01/12 13:14:41;;;;;;;0.90;0.60;;;10.90;99.90;;;;;;4993855;28;20117;-65
2023/01/12 13:17:20;;;;;;;0.52;0.50;;;10.80;99.90;;;;;;4994132;28;20092;-66
2023/01/12 13:19:50;;;;;;;0.55;0.30;;;10.80;99.90;;;;;;4993908;28;20110;-66
2023/01/12 13:22:32;;;;;;;0.47;0.25;;;10.80;99.90;;;;;;4993874;28;20124;-66
2023/01/12 13:25:23;;;;;;;0.70;0.20;;;10.80;99.90;;;;;;4994059;28;20030;-66
2023/01/12 13:28:11;;;;;;;0.65;0.50;;;10.80;99.90;;;;;;4994006;28;20049;-67
2023/01/12 13:30:49;;;;;;;1.15;0.68;;;10.80;99.90;;;;;;4976038;28;20105;-68
2023/01/12 13:33:15;;;;;;;0.50;0.47;;;10.80;99.90;;;;;;4993623;28;20038;-68
2023/01/12 13:35:43;;;;;;;0.68;0.30;;;10.80;99.90;;;;;;4993421;28;20100;-69
2023/01/12 13:38:38;;;;;;;5.22;0.65;;;10.90;99.90;;;;;;4993900;28;20053;-67
2023/01/12 13:43:13;;;;;;;2.22;0.88;;;10.90;99.90;;;;;;4993779;28;20391;-66
2023/01/12 13:44:04;;;;;;;0.43;0.40;;;10.90;99.90;;;;;;4993366;28;20038;-66
2023/01/12 13:46:38;;;;;;;0.70;0.47;;;10.90;99.90;;;;;;4992718;28;20041;-67
2023/01/12 13:49:28;;;;;;;0.15;0.15;;;10.90;99.90;;;;;;4993442;28;20053;-65